Time;durP1;ratioP1;P1;durP2;ratioP2;P2;SDS_P1;SDS_P2;PMS_P1;PMS_P2;Temp;Humidity;BMP_temperature;BMP_pressure;BME280_temperature;BME280_humidity;BME280_pressure;Samples;Min_cycle;Max_cycle;Signal;HPM_P1;HPM_P2
2024/02/28 00:02:12;;;;;;;37.63;27.52;;;;;;;6.15;79.46;98219.16;5033477;28;20040;-75
2024/02/28 00:04:40;;;;;;;37.88;27.00;;;;;;;6.17;79.49;98211.72;5015979;28;20080;-75
2024/02/28 00:07:05;;;;;;;38.17;26.25;;;;;;;6.28;79.78;98218.25;5032394;28;20041;-75
2024/02/28 00:09:31;;;;;;;37.97;27.08;;;;;;;6.27;78.98;98225.47;5015421;28;20035;-75
2024/02/28 00:11:56;;;;;;;39.83;26.00;;;;;;;6.26;79.62;98229.16;5033353;28;20029;-74
2024/02/28 00:14:21;;;;;;;34.78;25.50;;;;;;;6.19;79.31;98215.00;5033567;28;20082;-74
2024/02/28 00:16:47;;;;;;;34.85;24.73;;;;;;;6.10;79.08;98200.25;5015784;28;20400;-76
2024/02/28 00:19:13;;;;;;;34.88;24.85;;;;;;;6.28;79.31;98235.09;5031826;28;20116;-76
2024/02/28 00:21:39;;;;;;;32.80;24.00;;;;;;;6.19;79.73;98225.69;4999173;28;20044;-75
2024/02/28 00:24:06;;;;;;;34.03;24.83;;;;;;;6.25;79.08;98235.56;5015516;28;20021;-75
2024/02/28 00:26:31;;;;;;;33.65;24.95;;;;;;;6.11;79.05;98215.28;5015356;28;20037;-75
2024/02/28 00:28:57;;;;;;;34.22;24.88;;;;;;;6.11;78.82;98217.97;5011576;28;20119;-76
2024/02/28 00:31:22;;;;;;;36.08;25.48;;;;;;;6.12;79.04;98225.75;5031318;28;20025;-75
2024/02/28 00:33:47;;;;;;;34.95;25.45;;;;;;;6.16;80.11;98236.84;5033075;28;20678;-75
2024/02/28 00:36:13;;;;;;;35.40;25.13;;;;;;;5.98;79.49;98201.97;5033076;28;20140;-75
2024/02/28 00:38:39;;;;;;;35.55;26.10;;;;;;;6.11;79.78;98223.31;5031712;28;20477;-74
2024/02/28 00:41:04;;;;;;;36.25;25.98;;;;;;;6.13;80.31;98229.25;5014987;28;20033;-75
2024/02/28 00:43:29;;;;;;;38.22;26.42;;;;;;;6.14;79.56;98241.56;5015256;28;20040;-74
2024/02/28 00:45:55;;;;;;;35.47;25.35;;;;;;;6.11;79.52;98244.69;5032971;28;20041;-75
2024/02/28 00:48:22;;;;;;;36.08;24.98;;;;;;;5.97;80.06;98232.44;5031736;28;20029;-75
2024/02/28 00:50:47;;;;;;;34.33;25.33;;;;;;;6.01;80.23;98231.78;5014999;28;20419;-75
2024/02/28 00:53:12;;;;;;;36.60;26.85;;;;;;;5.96;80.39;98238.81;5031511;28;20024;-74
2024/02/28 00:55:38;;;;;;;37.97;26.15;;;;;;;6.04;79.89;98236.72;5014950;28;20044;-75
2024/02/28 00:58:03;;;;;;;36.13;26.38;;;;;;;5.90;80.33;98204.94;4998639;28;20053;-75
2024/02/28 01:00:29;;;;;;;35.83;25.48;;;;;;;6.01;80.28;98233.63;5014756;28;20041;-75
2024/02/28 01:02:54;;;;;;;37.50;26.80;;;;;;;6.08;80.26;98240.59;5031427;28;20048;-75
2024/02/28 01:05:19;;;;;;;34.75;24.20;;;;;;;6.08;79.91;98240.59;5031434;28;20128;-75
2024/02/28 01:07:45;;;;;;;33.13;26.15;;;;;;;6.13;79.79;98250.63;5015127;28;20088;-75
2024/02/28 01:10:10;;;;;;;37.33;26.27;;;;;;;6.17;79.96;98250.00;5031025;28;20033;-75
2024/02/28 01:12:35;;;;;;;36.33;26.05;;;;;;;6.03;79.68;98236.91;5014890;28;20473;-75
2024/02/28 01:15:01;;;;;;;36.53;24.52;;;;;;;6.06;79.92;98225.78;4998700;28;20061;-74
2024/02/28 01:17:26;;;;;;;36.75;26.05;;;;;;;6.05;79.81;98218.78;5032678;28;20554;-74
2024/02/28 01:19:52;;;;;;;36.30;26.52;;;;;;;6.21;79.54;98234.31;5014592;28;20037;-74
2024/02/28 01:22:17;;;;;;;35.70;25.65;;;;;;;6.17;80.17;98235.78;5014760;28;20071;-74
2024/02/28 01:24:42;;;;;;;35.25;25.02;;;;;;;6.18;80.38;98229.44;5014810;28;20048;-74
2024/02/28 01:27:08;;;;;;;35.92;25.85;;;;;;;5.95;80.07;98197.09;5031409;28;20495;-74
2024/02/28 01:29:33;;;;;;;37.83;27.25;;;;;;;6.13;80.26;98218.56;5030925;28;20095;-73
2024/02/28 01:31:58;;;;;;;35.85;26.05;;;;;;;6.20;79.53;98238.06;5031169;28;20492;-71
2024/02/28 01:34:24;;;;;;;36.28;26.63;;;;;;;6.22;80.68;98235.97;5031438;28;20044;-75
2024/02/28 01:36:49;;;;;;;32.78;24.65;;;;;;;6.13;80.15;98234.59;5014720;28;20017;-72
2024/02/28 01:39:15;;;;;;;34.95;24.48;;;;;;;6.10;80.45;98227.81;5014058;28;20048;-72
2024/02/28 01:41:43;;;;;;;33.97;25.10;;;;;;;6.25;80.42;98251.59;5014155;28;20048;-73
2024/02/28 01:44:08;;;;;;;34.88;25.77;;;;;;;6.14;79.96;98234.38;5030759;28;20402;-73
2024/02/28 01:46:35;;;;;;;33.45;25.42;;;;;;;6.20;80.55;98244.22;5030784;28;20411;-73
2024/02/28 01:49:00;;;;;;;37.45;25.23;;;;;;;6.23;78.91;98245.66;5030400;28;20041;-73
2024/02/28 01:51:29;;;;;;;34.13;24.77;;;;;;;6.28;79.36;98256.50;5030599;28;20026;-73
2024/02/28 01:53:54;;;;;;;33.88;24.75;;;;;;;6.15;79.65;98240.53;5030683;28;20034;-73
2024/02/28 01:56:20;;;;;;;33.67;24.58;;;;;;;6.20;78.94;98248.75;5013294;28;20429;-73
2024/02/28 01:58:46;;;;;;;34.47;25.60;;;;;;;6.27;80.25;98252.19;5008902;28;20096;-73
2024/02/28 02:01:14;;;;;;;34.08;24.30;;;;;;;6.20;79.50;98235.38;5030456;28;20071;-74
2024/02/28 02:03:43;;;;;;;32.55;25.83;;;;;;;6.28;80.63;98251.97;4998715;28;20044;-73
2024/02/28 02:06:09;;;;;;;33.88;24.85;;;;;;;6.21;80.08;98234.31;5029706;28;20025;-73
2024/02/28 02:08:34;;;;;;;35.35;25.95;;;;;;;6.21;80.00;98235.16;5010756;28;20056;-74
2024/02/28 02:11:00;;;;;;;31.38;24.88;;;;;;;6.28;80.16;98243.94;5026358;28;20021;-73
2024/02/28 02:13:25;;;;;;;35.55;26.20;;;;;;;6.31;80.19;98242.69;5013875;28;20091;-74
2024/02/28 02:15:50;;;;;;;35.58;26.60;;;;;;;6.25;80.08;98240.91;5030389;28;20045;-74
2024/02/28 02:18:16;;;;;;;30.58;22.33;;;;;;;6.28;80.23;98245.78;5031558;28;20096;-74
2024/02/28 02:20:49;;;;;;;33.47;24.23;;;;;;;6.21;79.69;98245.03;5013645;28;20125;-75
2024/02/28 02:23:15;;;;;;;33.55;24.83;;;;;;;6.25;79.79;98248.94;5013566;28;20040;-74
2024/02/28 02:25:47;;;;;;;31.85;24.15;;;;;;;6.32;79.92;98255.06;5013736;28;20033;-74
2024/02/28 02:28:12;;;;;;;31.30;22.30;;;;;;;6.25;79.18;98243.56;5030187;28;20087;-74
2024/02/28 02:30:39;;;;;;;30.00;22.23;;;;;;;6.25;79.51;98248.94;5013399;28;20022;-74
2024/02/28 02:33:04;;;;;;;28.08;22.23;;;;;;;6.29;79.88;98255.47;5030130;28;20094;-74
2024/02/28 02:35:30;;;;;;;28.02;21.00;;;;;;;6.23;79.50;98248.31;5030205;28;20501;-73
2024/02/28 02:37:55;;;;;;;26.77;20.45;;;;;;;6.17;80.14;98250.00;5030102;28;20103;-74
2024/02/28 02:40:20;;;;;;;25.80;21.05;;;;;;;6.20;79.44;98254.09;5029793;28;20033;-74
2024/02/28 02:42:46;;;;;;;26.58;20.70;;;;;;;6.20;79.67;98256.78;5030145;28;20025;-74
2024/02/28 02:45:11;;;;;;;29.83;21.92;;;;;;;6.18;80.08;98267.66;5031368;28;20056;-75
2024/02/28 02:47:37;;;;;;;29.52;22.52;;;;;;;6.30;79.65;98286.53;4997330;28;20080;-74
2024/02/28 02:50:02;;;;;;;26.88;20.55;;;;;;;6.13;79.92;98277.38;5029912;28;20390;-75
2024/02/28 02:52:28;;;;;;;27.40;20.85;;;;;;;6.23;79.74;98294.56;5031156;28;20694;-75
2024/02/28 02:54:53;;;;;;;30.40;21.17;;;;;;;6.14;79.63;98276.31;5013480;28;20083;-74
2024/02/28 02:57:19;;;;;;;27.67;20.23;;;;;;;6.22;79.52;98289.47;5013498;28;20495;-74
2024/02/28 02:59:44;;;;;;;28.08;20.92;;;;;;;6.19;79.32;98289.88;5030871;28;20037;-74
2024/02/28 03:02:09;;;;;;;24.27;19.90;;;;;;;6.15;79.66;98286.00;5031207;28;20093;-76
2024/02/28 03:04:35;;;;;;;24.42;19.55;;;;;;;6.28;80.16;98309.97;5013479;28;20025;-75
2024/02/28 03:07:00;;;;;;;27.25;21.05;;;;;;;6.07;79.25;98280.88;5030084;28;20045;-75
2024/02/28 03:09:25;;;;;;;22.48;18.92;;;;;;;6.18;79.32;98312.31;5012917;28;20025;-76
2024/02/28 03:11:51;;;;;;;22.45;18.10;;;;;;;6.28;79.63;98314.53;5013441;28;20469;-76
2024/02/28 03:14:16;;;;;;;24.65;18.98;;;;;;;6.12;79.62;98307.81;5029694;28;20026;-76
2024/02/28 03:16:42;;;;;;;23.75;19.45;;;;;;;6.24;79.65;98320.28;5029903;28;20038;-76
2024/02/28 03:19:09;;;;;;;23.55;19.00;;;;;;;6.13;80.09;98322.81;5014228;28;20021;-76
2024/02/28 03:21:35;;;;;;;24.40;19.60;;;;;;;6.15;79.58;98326.09;5017066;28;20038;-75
2024/02/28 03:24:00;;;;;;;23.20;18.80;;;;;;;6.18;79.07;98315.00;5033306;28;20047;-75
2024/02/28 03:26:26;;;;;;;21.25;17.17;;;;;;;6.16;79.94;98327.75;5016918;28;20455;-75
2024/02/28 03:28:51;;;;;;;22.08;17.80;;;;;;;6.17;79.14;98334.72;5016596;28;20096;-75
2024/02/28 03:31:16;;;;;;;19.85;16.85;;;;;;;6.15;79.96;98348.31;5016755;28;20517;-75
2024/02/28 03:33:42;;;;;;;20.58;16.92;;;;;;;6.02;79.46;98326.16;5013502;28;20022;-75
2024/02/28 03:36:07;;;;;;;22.75;17.17;;;;;;;6.07;79.48;98345.88;5031642;28;20044;-75
2024/02/28 03:38:32;;;;;;;21.08;17.08;;;;;;;6.02;79.92;98342.22;5033203;28;20056;-76
2024/02/28 03:40:58;;;;;;;19.33;17.05;;;;;;;6.04;80.44;98342.81;5016267;28;20033;-75
2024/02/28 03:43:23;;;;;;;20.63;17.30;;;;;;;6.17;79.43;98366.81;5016553;28;20048;-75
2024/02/28 03:45:49;;;;;;;21.30;17.17;;;;;;;6.05;80.09;98352.47;5000355;28;20042;-75
2024/02/28 03:48:15;;;;;;;21.13;16.65;;;;;;;6.14;79.54;98369.91;5033003;28;20017;-75
2024/02/28 03:50:41;;;;;;;21.10;16.98;;;;;;;6.15;79.49;98363.53;4999887;28;20048;-76
2024/02/28 03:53:06;;;;;;;20.15;15.85;;;;;;;6.08;79.11;98362.75;5016535;28;20547;-76
2024/02/28 03:55:31;;;;;;;19.48;16.10;;;;;;;6.23;79.62;98374.00;5016463;28;20500;-75
2024/02/28 03:57:57;;;;;;;22.58;17.48;;;;;;;6.23;80.00;98376.69;5032995;28;20100;-74
2024/02/28 04:00:22;;;;;;;23.63;18.85;;;;;;;6.23;79.46;98372.13;4999703;28;20059;-74
2024/02/28 04:02:47;;;;;;;24.15;18.20;;;;;;;6.16;79.96;98365.97;5016106;28;20385;-74
2024/02/28 04:05:13;;;;;;;19.42;16.83;;;;;;;6.33;79.69;98397.59;5016233;28;20087;-75
2024/02/28 04:07:38;;;;;;;21.35;17.70;;;;;;;6.13;79.59;98365.59;5016072;28;20021;-75
2024/02/28 04:10:05;;;;;;;19.35;16.13;;;;;;;6.29;79.76;98391.84;5015906;28;20037;-75
2024/02/28 04:12:30;;;;;;;21.25;16.20;;;;;;;6.36;79.73;98398.00;5032369;28;20025;-74
2024/02/28 04:14:56;;;;;;;22.55;17.52;;;;;;;6.33;78.71;98387.72;5032656;28;20048;-74
2024/02/28 04:17:21;;;;;;;19.92;15.98;;;;;;;6.38;79.63;98389.75;5015315;28;20025;-74
2024/02/28 04:19:47;;;;;;;19.95;16.23;;;;;;;6.39;79.23;98386.88;5015615;28;20116;-74
2024/02/28 04:22:12;;;;;;;19.33;16.88;;;;;;;6.42;79.30;98386.44;5033487;28;20143;-74
2024/02/28 04:24:38;;;;;;;21.73;16.33;;;;;;;6.56;78.38;98398.72;5032531;28;20037;-76
2024/02/28 04:27:05;;;;;;;22.05;16.50;;;;;;;6.45;78.23;98386.03;5016050;28;20485;-76
2024/02/28 04:29:30;;;;;;;19.40;16.48;;;;;;;6.45;78.41;98378.00;5019986;28;20492;-76
2024/02/28 04:31:56;;;;;;;23.80;18.60;;;;;;;6.50;79.04;98410.28;5032406;28;20017;-76
2024/02/28 04:34:21;;;;;;;22.20;17.27;;;;;;;6.49;78.62;98413.97;5032144;28;20152;-76
2024/02/28 04:36:46;;;;;;;23.05;18.67;;;;;;;6.41;78.33;98400.88;5032275;28;20068;-76
2024/02/28 04:39:12;;;;;;;23.83;18.52;;;;;;;6.42;78.06;98413.19;5033113;28;20136;-76
2024/02/28 04:41:37;;;;;;;23.63;18.48;;;;;;;6.47;78.61;98409.88;5011981;28;20033;-76
2024/02/28 04:44:03;;;;;;;24.38;19.35;;;;;;;6.50;78.19;98415.63;5032071;28;20131;-76
2024/02/28 04:46:28;;;;;;;21.58;17.98;;;;;;;6.41;78.89;98400.03;5015406;28;20075;-76
2024/02/28 04:48:53;;;;;;;26.17;20.42;;;;;;;6.28;79.16;98408.13;5014822;28;20143;-76
2024/02/28 04:51:19;;;;;;;24.73;18.83;;;;;;;6.37;78.00;98393.47;4998960;28;20037;-76
2024/02/28 04:53:44;;;;;;;25.38;19.33;;;;;;;6.43;78.16;98401.47;4998961;28;20514;-76
2024/02/28 04:56:09;;;;;;;23.00;18.48;;;;;;;6.50;78.01;98410.28;5015289;28;20026;-75
2024/02/28 04:58:38;;;;;;;25.02;19.20;;;;;;;6.45;78.03;98412.78;5031791;28;20034;-76
2024/02/28 05:01:04;;;;;;;25.80;18.63;;;;;;;6.51;78.52;98414.59;5031254;28;20034;-76
2024/02/28 05:03:29;;;;;;;23.38;18.02;;;;;;;6.44;78.47;98434.41;5014808;28;20113;-76
2024/02/28 05:05:55;;;;;;;24.35;17.60;;;;;;;6.43;78.79;98425.53;5031909;28;20037;-75
2024/02/28 05:08:20;;;;;;;23.23;17.83;;;;;;;6.31;79.03;98405.84;5015177;28;20041;-76
2024/02/28 05:10:46;;;;;;;22.60;17.85;;;;;;;6.35;79.54;98412.41;4995184;28;20112;-75
2024/02/28 05:13:11;;;;;;;24.38;19.02;;;;;;;6.42;78.66;98415.88;4998611;28;20132;-76
2024/02/28 05:15:36;;;;;;;26.45;19.92;;;;;;;6.46;79.04;98419.78;5031741;28;20499;-76
2024/02/28 05:18:02;;;;;;;26.80;20.13;;;;;;;6.28;79.08;98391.03;5015498;28;20033;-77
2024/02/28 05:20:28;;;;;;;27.27;21.00;;;;;;;6.42;78.76;98423.09;5030988;28;20381;-76
2024/02/28 05:22:53;;;;;;;26.75;20.85;;;;;;;6.24;79.40;98380.97;5031420;28;20116;-76
2024/02/28 05:25:18;;;;;;;26.15;20.35;;;;;;;6.47;79.07;98405.34;5014883;28;20037;-76
2024/02/28 05:27:44;;;;;;;28.33;20.83;;;;;;;6.56;79.70;98424.69;5031002;28;20482;-76
2024/02/28 05:30:10;;;;;;;26.75;20.80;;;;;;;6.53;79.07;98431.28;5013909;28;20029;-77
2024/02/28 05:32:35;;;;;;;28.80;21.75;;;;;;;6.41;79.44;98438.31;5013312;28;20091;-76
2024/02/28 05:35:01;;;;;;;27.95;20.80;;;;;;;6.39;79.17;98432.34;5011041;28;20465;-76
2024/02/28 05:37:26;;;;;;;30.33;21.83;;;;;;;6.30;79.46;98428.28;5014268;28;20116;-75
2024/02/28 05:39:52;;;;;;;28.00;20.60;;;;;;;6.24;80.16;98426.44;5032042;28;20025;-75
2024/02/28 05:42:21;;;;;;;27.58;20.42;;;;;;;6.30;80.10;98440.81;4998028;28;20033;-76
2024/02/28 05:44:48;;;;;;;28.85;21.35;;;;;;;6.36;80.52;98443.47;5031022;28;20175;-76
2024/02/28 05:47:13;;;;;;;29.35;21.85;;;;;;;6.19;79.62;98410.19;5014485;28;20033;-75
2024/02/28 05:49:39;;;;;;;29.48;21.48;;;;;;;6.20;79.69;98426.06;5030209;28;20358;-75
2024/02/28 05:52:05;;;;;;;30.08;21.33;;;;;;;6.18;80.04;98440.66;5030790;28;20025;-75
2024/02/28 05:54:30;;;;;;;28.55;20.73;;;;;;;6.28;80.49;98443.69;5014260;28;20556;-76
2024/02/28 05:56:56;;;;;;;30.42;22.08;;;;;;;6.12;80.89;98428.13;5030921;28;20159;-75
2024/02/28 05:59:21;;;;;;;28.30;20.50;;;;;;;6.18;80.56;98435.31;5030990;28;20032;-75
2024/02/28 06:01:47;;;;;;;29.05;20.67;;;;;;;6.12;80.32;98428.13;5014639;28;20040;-77
2024/02/28 06:04:12;;;;;;;26.85;19.60;;;;;;;6.11;80.61;98418.47;5013978;28;20485;-76
2024/02/28 06:06:38;;;;;;;27.65;20.02;;;;;;;6.14;80.68;98428.72;5030378;28;20128;-76
2024/02/28 06:09:03;;;;;;;28.10;20.35;;;;;;;6.35;80.21;98454.41;5010595;28;20026;-76
2024/02/28 06:11:29;;;;;;;24.70;19.85;;;;;;;6.34;79.83;98458.91;5013889;28;20515;-76
2024/02/28 06:13:54;;;;;;;27.73;20.73;;;;;;;6.09;80.09;98440.03;5030663;28;20025;-76
2024/02/28 06:16:19;;;;;;;27.17;20.25;;;;;;;6.24;80.90;98463.88;4997693;28;20037;-76
2024/02/28 06:18:45;;;;;;;25.65;19.75;;;;;;;6.32;80.53;98478.88;5013731;28;20036;-78
2024/02/28 06:21:10;;;;;;;23.60;18.80;;;;;;;6.02;80.17;98433.09;4997447;28;20496;-75
2024/02/28 06:23:36;;;;;;;26.83;20.38;;;;;;;6.20;79.88;98463.47;5013907;28;20104;-76
2024/02/28 06:26:01;;;;;;;27.52;20.38;;;;;;;6.22;80.16;98484.66;5030400;28;20045;-76
2024/02/28 06:28:26;;;;;;;26.58;20.00;;;;;;;6.13;81.28;98469.88;5030339;28;20025;-76
2024/02/28 06:30:52;;;;;;;24.83;20.58;;;;;;;6.08;80.84;98453.63;5029962;28;20041;-75
2024/02/28 06:33:18;;;;;;;23.67;19.15;;;;;;;6.21;80.99;98472.31;5013758;28;20021;-76
2024/02/28 06:35:44;;;;;;;25.27;19.42;;;;;;;6.42;79.98;98485.41;5031637;28;20026;-77
2024/02/28 06:38:09;;;;;;;26.05;19.48;;;;;;;6.33;79.58;98472.47;5013692;28;20399;-75
2024/02/28 06:40:34;;;;;;;26.08;19.65;;;;;;;6.38;80.19;98470.81;4996975;28;20552;-75
2024/02/28 06:43:00;;;;;;;25.45;19.05;;;;;;;6.52;79.65;98493.81;5030213;28;20028;-76
2024/02/28 06:45:26;;;;;;;26.08;20.77;;;;;;;6.48;80.01;98487.25;5030110;28;20048;-75
2024/02/28 06:47:51;;;;;;;23.48;18.50;;;;;;;6.52;80.45;98487.66;5013683;28;20030;-76
2024/02/28 06:50:17;;;;;;;26.60;20.17;;;;;;;6.34;79.50;98474.97;5029773;28;20413;-76
2024/02/28 06:52:42;;;;;;;25.92;20.30;;;;;;;6.39;79.80;98493.88;5011844;28;20018;-75
2024/02/28 06:55:10;;;;;;;29.10;22.55;;;;;;;6.22;79.76;98488.16;5018247;28;20512;-75
2024/02/28 06:57:38;;;;;;;28.55;22.30;;;;;;;6.17;81.04;98493.31;5034088;28;20022;-75
2024/02/28 07:00:05;;;;;;;28.92;21.77;;;;;;;6.26;80.95;98489.38;5033749;28;20041;-75
2024/02/28 07:02:31;;;;;;;29.48;22.10;;;;;;;6.34;79.96;98499.03;5025709;28;20018;-75
2024/02/28 07:04:56;;;;;;;26.75;21.40;;;;;;;6.22;80.69;98484.66;5017328;28;20408;-75
2024/02/28 07:07:21;;;;;;;28.90;21.23;;;;;;;6.42;80.50;98514.84;5017157;28;20083;-74
2024/02/28 07:09:47;;;;;;;28.02;21.83;;;;;;;6.36;80.62;98517.53;5016923;28;20044;-75
2024/02/28 07:12:12;;;;;;;28.58;22.25;;;;;;;6.39;80.04;98504.56;5033526;28;20033;-75
2024/02/28 07:14:38;;;;;;;28.58;22.50;;;;;;;6.31;80.08;98502.13;5017411;28;20041;-76
2024/02/28 07:17:03;;;;;;;30.08;21.75;;;;;;;6.40;79.57;98506.19;5033763;28;20060;-76
2024/02/28 07:19:29;;;;;;;28.15;21.65;;;;;;;6.30;80.16;98494.31;5016758;28;20041;-76
2024/02/28 07:21:54;;;;;;;29.02;22.08;;;;;;;6.28;80.11;98501.72;5033516;28;20025;-76
2024/02/28 07:24:19;;;;;;;28.45;21.67;;;;;;;6.40;79.57;98511.56;5033482;28;20045;-76
2024/02/28 07:26:46;;;;;;;28.10;21.25;;;;;;;6.32;79.88;98525.16;5033635;28;20025;-76
2024/02/28 07:29:11;;;;;;;27.48;21.85;;;;;;;6.09;80.67;98490.03;5033287;28;20139;-76
2024/02/28 07:31:36;;;;;;;28.67;22.13;;;;;;;6.24;79.86;98495.97;5016915;28;20049;-75
2024/02/28 07:34:02;;;;;;;27.92;21.40;;;;;;;6.26;79.98;98515.28;5016880;28;20037;-76
2024/02/28 07:36:27;;;;;;;27.83;22.08;;;;;;;6.22;80.29;98500.69;5016749;28;20025;-76
2024/02/28 07:38:53;;;;;;;28.58;21.70;;;;;;;6.39;79.25;98514.44;5034092;28;20034;-76
2024/02/28 07:41:18;;;;;;;28.40;21.70;;;;;;;6.41;80.46;98510.53;5033186;28;20643;-75
2024/02/28 07:43:43;;;;;;;26.70;20.27;;;;;;;6.40;79.81;98506.19;5000374;28;20666;-75
2024/02/28 07:46:10;;;;;;;27.73;22.63;;;;;;;6.60;79.21;98541.75;5033046;28;20022;-75
2024/02/28 07:48:36;;;;;;;30.02;22.77;;;;;;;6.60;79.03;98544.44;5033232;28;20041;-76
2024/02/28 07:51:07;;;;;;;30.55;22.13;;;;;;;6.67;79.92;98555.13;5016087;28;20032;-75
2024/02/28 07:53:32;;;;;;;30.35;21.90;;;;;;;6.43;79.44;98516.50;5011238;28;20401;-75
2024/02/28 07:55:58;;;;;;;28.92;21.58;;;;;;;6.60;78.81;98544.44;5016606;28;20036;-75
2024/02/28 07:58:23;;;;;;;27.98;21.33;;;;;;;6.69;78.78;98564.59;5016390;28;20033;-74
2024/02/28 08:00:50;;;;;;;28.10;20.38;;;;;;;6.59;78.92;98555.34;5016171;28;20022;-75
2024/02/28 08:03:16;;;;;;;29.25;21.67;;;;;;;6.55;79.07;98546.91;5009444;28;20037;-76
2024/02/28 08:05:43;;;;;;;29.20;20.77;;;;;;;6.66;78.60;98565.00;5032162;28;20037;-76
2024/02/28 08:08:08;;;;;;;28.30;21.70;;;;;;;6.76;78.23;98570.75;5016251;28;20080;-75
2024/02/28 08:10:35;;;;;;;24.27;20.08;;;;;;;6.71;78.24;98567.88;5033644;28;20052;-75
2024/02/28 08:13:01;;;;;;;26.05;20.50;;;;;;;6.74;77.63;98562.09;5014678;28;20091;-76
2024/02/28 08:15:26;;;;;;;26.65;20.90;;;;;;;6.90;77.58;98577.69;5032168;28;20109;-76
2024/02/28 08:17:52;;;;;;;26.05;20.95;;;;;;;6.79;76.79;98567.63;5001234;28;20124;-76
2024/02/28 08:20:17;;;;;;;26.58;20.63;;;;;;;6.89;76.74;98586.75;5015631;28;20060;-75
2024/02/28 08:22:43;;;;;;;28.83;21.05;;;;;;;6.82;77.71;98579.75;5018260;28;20477;-76
2024/02/28 08:25:11;;;;;;;28.52;21.38;;;;;;;6.83;77.42;98586.78;5033749;28;20404;-76
2024/02/28 08:27:37;;;;;;;30.00;21.63;;;;;;;6.83;77.21;98592.13;5002150;28;20401;-76
2024/02/28 08:30:03;;;;;;;28.35;20.55;;;;;;;6.75;77.39;98589.66;5032120;28;20021;-75
2024/02/28 08:32:28;;;;;;;26.73;20.40;;;;;;;6.82;78.28;98596.66;5032143;28;20041;-76
2024/02/28 08:34:54;;;;;;;25.52;20.20;;;;;;;6.84;78.15;98599.94;5032220;28;20033;-75
2024/02/28 08:37:20;;;;;;;24.95;20.80;;;;;;;6.84;77.71;98578.53;5032127;28;20047;-76
2024/02/28 08:39:45;;;;;;;27.88;20.02;;;;;;;6.89;77.62;98596.63;5011924;28;20109;-75
2024/02/28 08:42:11;;;;;;;26.42;20.40;;;;;;;7.01;76.48;98611.00;5012809;28;20123;-75
2024/02/28 08:44:37;;;;;;;25.55;19.77;;;;;;;6.86;77.04;98597.88;5032060;28;20095;-75
2024/02/28 08:47:02;;;;;;;26.92;20.15;;;;;;;6.82;76.89;98591.28;5015338;28;20509;-75
2024/02/28 08:49:28;;;;;;;25.63;19.30;;;;;;;6.73;76.26;98573.00;5032948;28;20056;-75
2024/02/28 08:51:53;;;;;;;27.60;20.02;;;;;;;6.88;76.82;98589.66;5032937;28;20116;-76
2024/02/28 08:54:18;;;;;;;25.58;18.60;;;;;;;7.04;76.37;98604.41;5015099;28;20036;-75
2024/02/28 08:56:44;;;;;;;25.08;19.35;;;;;;;7.11;76.46;98610.56;4996135;28;20795;-75
2024/02/28 08:59:09;;;;;;;26.70;19.92;;;;;;;7.07;76.47;98596.75;5031970;28;20029;-76
2024/02/28 09:01:35;;;;;;;27.50;19.80;;;;;;;7.22;76.93;98615.25;5011976;28;20476;-75
2024/02/28 09:04:01;;;;;;;24.52;19.33;;;;;;;7.15;76.07;98595.69;5015332;28;20397;-75
2024/02/28 09:06:27;;;;;;;26.42;19.90;;;;;;;7.29;75.87;98595.44;5015094;28;20112;-75
2024/02/28 09:08:52;;;;;;;28.15;20.27;;;;;;;7.35;75.08;98586.53;5032414;28;20053;-76
2024/02/28 09:11:17;;;;;;;27.52;20.70;;;;;;;7.38;75.08;98578.06;5010102;28;20033;-75
2024/02/28 09:13:43;;;;;;;27.75;20.42;;;;;;;7.53;74.58;98605.41;5014941;28;20539;-75
2024/02/28 09:16:08;;;;;;;30.05;21.33;;;;;;;7.62;74.83;98614.00;5031157;28;20045;-75
2024/02/28 09:18:34;;;;;;;32.60;22.40;;;;;;;7.47;74.07;98578.63;5032677;28;20029;-75
2024/02/28 09:20:59;;;;;;;29.45;21.42;;;;;;;7.64;74.78;98590.50;4998176;28;20128;-75
2024/02/28 09:23:25;;;;;;;29.73;22.15;;;;;;;7.74;73.78;98600.75;5031174;28;20030;-74
2024/02/28 09:25:50;;;;;;;27.52;20.90;;;;;;;7.84;73.82;98595.75;5014746;28;20069;-75
2024/02/28 09:28:16;;;;;;;30.08;21.67;;;;;;;7.83;73.96;98584.19;5031311;28;20037;-76
2024/02/28 09:30:42;;;;;;;29.90;21.83;;;;;;;7.99;73.07;98610.47;5014842;28;20191;-76
2024/02/28 09:33:08;;;;;;;30.50;22.23;;;;;;;7.96;73.29;98602.84;5014674;28;20025;-76
2024/02/28 09:35:34;;;;;;;32.30;23.00;;;;;;;7.92;72.75;98604.34;5011450;28;20029;-76
2024/02/28 09:38:00;;;;;;;30.83;22.10;;;;;;;7.85;74.14;98619.66;5006436;28;20473;-76
2024/02/28 09:40:25;;;;;;;27.73;19.92;;;;;;;7.86;73.25;98605.22;5014281;28;20037;-75
2024/02/28 09:43:00;;;;;;;28.08;21.17;;;;;;;7.99;72.70;98610.47;5014356;28;20382;-76
2024/02/28 09:45:26;;;;;;;29.20;21.48;;;;;;;7.89;73.23;98594.03;5030787;28;20042;-75
2024/02/28 09:47:51;;;;;;;28.83;21.08;;;;;;;8.02;72.74;98610.03;5030879;28;20028;-76
2024/02/28 09:50:18;;;;;;;24.45;18.63;;;;;;;8.17;72.28;98617.75;5030436;28;20116;-76
2024/02/28 09:52:44;;;;;;;23.67;18.23;;;;;;;8.14;72.08;98608.31;5030773;28;20108;-75
2024/02/28 09:55:09;;;;;;;21.98;17.40;;;;;;;8.16;72.21;98610.75;5014250;28;20503;-75
2024/02/28 09:57:35;;;;;;;22.50;17.30;;;;;;;8.39;71.64;98626.28;5030700;28;20437;-75
2024/02/28 10:00:01;;;;;;;24.27;18.00;;;;;;;8.47;71.80;98631.38;5030451;28;20044;-75
2024/02/28 10:02:28;;;;;;;24.83;18.02;;;;;;;8.29;71.21;98610.66;5030048;28;20032;-75
2024/02/28 10:04:53;;;;;;;24.17;18.40;;;;;;;8.18;71.60;98609.50;5030492;28;20116;-75
2024/02/28 10:07:19;;;;;;;23.48;18.65;;;;;;;8.31;71.58;98622.00;5012477;28;20614;-76
2024/02/28 10:09:44;;;;;;;21.98;17.02;;;;;;;8.41;71.79;98633.06;5011960;28;20048;-75
2024/02/28 10:12:10;;;;;;;23.42;17.98;;;;;;;8.55;70.70;98636.44;5034602;28;20029;-75
2024/02/28 10:14:35;;;;;;;20.33;16.60;;;;;;;8.65;70.41;98642.16;5028443;28;20033;-75
2024/02/28 10:17:00;;;;;;;20.42;16.38;;;;;;;8.61;70.16;98622.16;5012124;28;20029;-75
2024/02/28 10:19:26;;;;;;;18.50;15.63;;;;;;;8.73;70.60;98639.16;5029390;28;20044;-75
2024/02/28 10:21:52;;;;;;;17.25;15.23;;;;;;;8.89;70.00;98649.34;5012850;28;20028;-75
2024/02/28 10:24:17;;;;;;;16.63;14.20;;;;;;;8.92;69.66;98647.03;5031546;28;20037;-75
2024/02/28 10:26:44;;;;;;;18.70;15.23;;;;;;;8.94;69.81;98619.94;5029762;28;20029;-75
2024/02/28 10:29:10;;;;;;;18.30;15.48;;;;;;;9.08;69.68;98648.28;4997099;28;20493;-75
2024/02/28 10:31:35;;;;;;;18.60;15.55;;;;;;;9.04;69.46;98636.38;5013906;28;20064;-76
2024/02/28 10:34:02;;;;;;;19.92;15.40;;;;;;;9.12;68.96;98660.25;5031470;28;20043;-76
2024/02/28 10:36:30;;;;;;;20.55;16.27;;;;;;;9.06;69.14;98655.75;5030310;28;20044;-75
2024/02/28 10:38:56;;;;;;;20.67;16.35;;;;;;;9.05;68.78;98662.19;5013416;28;20378;-76
2024/02/28 10:41:21;;;;;;;20.08;16.10;;;;;;;9.04;69.23;98668.59;5013516;28;20072;-76
2024/02/28 10:43:48;;;;;;;20.45;16.05;;;;;;;8.86;68.69;98650.63;5030114;28;20033;-76
2024/02/28 10:46:14;;;;;;;19.02;16.20;;;;;;;8.94;68.70;98662.91;5013826;28;20511;-76
2024/02/28 10:48:39;;;;;;;19.30;16.17;;;;;;;8.90;68.96;98657.19;5014036;28;20037;-76
2024/02/28 10:51:05;;;;;;;20.88;16.20;;;;;;;8.73;69.07;98644.53;5013731;28;20021;-76
2024/02/28 10:53:41;;;;;;;18.25;15.07;;;;;;;8.81;68.68;98641.56;5011740;28;20037;-76
2024/02/28 10:56:10;;;;;;;20.58;15.63;;;;;;;8.81;68.98;98649.63;5010790;28;20038;-76
2024/02/28 10:58:39;;;;;;;17.83;14.93;;;;;;;8.76;68.96;98649.47;5031347;28;20017;-76
2024/02/28 11:01:05;;;;;;;17.15;14.90;;;;;;;8.85;69.15;98675.00;5013847;28;20064;-75
2024/02/28 11:03:31;;;;;;;18.70;15.43;;;;;;;8.79;69.28;98665.16;4994695;28;20172;-76
2024/02/28 11:05:57;;;;;;;19.08;15.50;;;;;;;8.72;69.46;98664.38;5030081;28;20033;-76
2024/02/28 11:08:24;;;;;;;20.15;15.23;;;;;;;8.74;69.52;98667.66;4997274;28;20025;-76
2024/02/28 11:10:56;;;;;;;18.85;15.20;;;;;;;8.71;69.31;98663.56;5029771;28;20504;-76
2024/02/28 11:13:25;;;;;;;18.95;15.10;;;;;;;8.74;69.17;98679.22;5029653;28;20044;-76
2024/02/28 11:15:57;;;;;;;18.33;14.30;;;;;;;8.76;69.31;98660.22;5030095;28;20028;-76
2024/02/28 11:18:22;;;;;;;16.90;13.80;;;;;;;8.71;69.59;98662.72;5013524;28;20037;-76